CheckWX is a tool to help pilots better visualize weather data.  It is not intended as a substitute for an official pre-flight weather briefing.

01:53:57 UTC

UMMS TAF
Minsk International Airport
Minsk, Belarus
TAF UMMS 232308Z 2400/2424 27006G11MPS 8000 -SN BLSN BKN010 TEMPO 2400/2408 29009G14MPS 1200 FZRA BR BKN003 FM240800 28005G10MPS 5000 BR BKN005 TEMPO 2408/2416 2100 -FZRA -SNRA BKN003 TEMPO 2416/2424 1200 -FZDZ RASN BKN003

Feb-24@
00:00 UTC

Feb-24 @ 00:00 UTC

Feb-24@
08:00 UTC

Feb-24 @ 08:00 UTC

TAF UMMS 232308Z 2400/2424 27006G11MPS 8000 -SN BLSN BKN010
Wind
  • 270° at 12 KTS
  • {Gusting to 21 KTS
Conditions
Light Snow, Blowing Snow
Cloud Levels
  • Broken at 1,000' AGL

Feb-24@
00:00 UTC

Feb-24 @ 00:00 UTC

Feb-24@
08:00 UTC

Feb-24 @ 08:00 UTC

TEMPO 2400/2408 29009G14MPS 1200 FZRA BR BKN003

Temporary

Temporary Changes expected for less than half the time period

Wind
  • 290° at 17 KTS
  • {Gusting to 27 KTS
Conditions
Freezing Rain, Mist
Cloud Levels
  • Broken at 300' AGL

Feb-24@
08:00 UTC

Feb-24 @ 08:00 UTC

Feb-24@
16:00 UTC

Feb-24 @ 16:00 UTC

TEMPO 2408/2416 2100 -FZRA -SNRA BKN003

Temporary

Temporary Changes expected for less than half the time period

Conditions
Light Freezing Light Rain, Light Snow, Light Rain
Cloud Levels
  • Broken at 300' AGL

Feb-24@
08:00 UTC

Feb-24 @ 08:00 UTC

Feb-25@
00:00 UTC

Feb-25 @ 00:00 UTC

FM240800 28005G10MPS 5000 BR BKN005

From

From Standard forecast or significant change

Wind
  • 280° at 10 KTS
  • {Gusting to 19 KTS
Conditions
Mist
Cloud Levels
  • Broken at 500' AGL

Feb-24@
16:00 UTC

Feb-24 @ 16:00 UTC

Feb-25@
00:00 UTC

Feb-25 @ 00:00 UTC

TEMPO 2416/2424 1200 -FZDZ RASN BKN003

Temporary

Temporary Changes expected for less than half the time period

Conditions
Light Freezing Light Drizzle, Rain, Snow
Cloud Levels
  • Broken at 300' AGL